メインページ
METAR-TAF:

METAR-TAF

空港 :

カルガリー国際空港

カルガリー, アルバータ州, カナダ

緯度: 51-07N, 経度: 114-01W, 海抜: 1077m

現時点の気象観測

当レポートは48分前の02:00(UTC)に作成
南西の風 13kt
気温 -3°C
湿度 58%
気圧 1006 hPa
視程: 24.1km
高度14000ftの雲はほとんどない
高度17000ftの雲はほとんどない
高度21000ftの雲はほとんどない
高度24000ftの千切れ雲あり

METAR: CYYC 070200Z 22013KT 15SM FEW140 FEW170 FEW210 BKN240 M03/M10 A2970 RMK AC1AC1CI1CI6 AC TR AC TR SLP120

時間: 19:48 (02:48 UTC)

予報

当レポートは8分前の02:40(UTC)に作成
予報は07日の 03時(UTC)から 07日の 24時(UTC)まで有効
南西の風 8kt
視程: 10km
高度3000ftの雲はほとんどない
高度14000ftの雲は散在している
高度20000ftの千切れ雲あり
07日の 05時(UTC)から 07日の 07時(UTC)まで徐々に
西の風 6kt
07日の 1600時(UTC)から
の風 12kt
視程: 10km
高度1000ftの雲はほとんどない
高度6000ftの雲は散在している
高度20000ftの雲は散在している
07日の 2200時(UTC)から
北/北東の風 12kt
視程: 10km
高度800ftの雲は散在している
高度6000ftの曇り
小雪
07日の 22時(UTC)から 07日の 24時(UTC)まで一時的に
視程: 3.2km
高度800ftの千切れ雲あり
高度6000ftの曇り
小雪

TAF: CYYC 070240Z 0703/0724 22008KT P6SM FEW030 SCT140 BKN200 BECMG 0705/0707 28006KT FM071600 35012KT P6SM FEW010 SCT060 SCT200 FM072200 02012KT P6SM -SN SCT008 OVC060 TEMPO 0722/0724 2SM -SN BKN008 OVC060 RMK NXT FCST BY 070600Z

4,000以上の空港の気象観測と天気予報(METAR報とTAF報)

利用可能な観測所は地図上に黄色い丸と赤い丸で示す。

丸の上にカーソルを重ねると観測所名を参照できる。

次にクリックすると気象観測と天気予報を参照できる。

マップの切り替え:黒色「×」印の緑ボタンをクリックして拡大、「-」印の緑ボタンをクリックして縮小、緑色の三角印をクリックして隣りの地図に切り替え


METAR-TAF: